createdAt,value
2019-06-01T00:03:12.281Z,72.40
2019-06-01T00:07:19.113Z,72.95
2019-06-01T00:11:25.910Z,73.25
2019-06-01T00:15:32.818Z,73.78
2019-06-01T00:19:39.953Z,74.34
2019-06-01T00:23:46.809Z,74.75
2019-06-01T00:27:53.695Z,74.93
2019-06-01T00:32:00.483Z,75.28
2019-06-01T00:36:07.343Z,75.03
2019-06-01T00:40:14.245Z,75.74
2019-06-01T00:44:21.111Z,75.89
2019-06-01T00:48:27.879Z,76.46
2019-06-01T00:52:34.729Z,77.12
2019-06-01T00:56:41.599Z,77.04
2019-06-01T01:00:49.426Z,77.36
2019-06-01T01:05:16.050Z,77.28
2019-06-01T01:09:22.846Z,78.33
2019-06-01T01:13:29.896Z,78.22
2019-06-01T01:17:36.912Z,78.30
2019-06-01T01:21:43.716Z,78.47
2019-06-01T01:25:50.668Z,78.36
2019-06-01T01:29:57.396Z,78.34
2019-06-01T01:34:04.093Z,79.12
2019-06-01T01:38:10.837Z,79.04
2019-06-01T01:42:17.520Z,79.78
2019-06-01T01:46:24.233Z,79.42
2019-06-01T01:50:30.948Z,79.34
2019-06-01T01:54:37.788Z,79.85
2019-06-01T01:58:44.684Z,80.81
2019-06-01T02:02:51.874Z,80.95
2019-06-01T02:06:58.568Z,80.87
2019-06-01T02:11:05.306Z,81.04
2019-06-01T02:15:12.181Z,81.97
2019-06-01T02:19:19.103Z,81.49
2019-06-01T02:23:25.872Z,81.53
2019-06-01T02:27:32.795Z,81.18
2019-06-01T02:31:42.552Z,81.87
2019-06-01T02:35:48.198Z,82.24
2019-06-01T02:39:56.663Z,82.85
2019-06-01T02:44:04.350Z,82.66
2019-06-01T02:48:12.026Z,83.18
2019-06-01T02:52:18.904Z,83.08
2019-06-01T02:56:25.647Z,82.75
2019-06-01T03:01:22.262Z,82.68
2019-06-01T03:05:31.565Z,82.70
2019-06-01T03:09:39.956Z,82.97
2019-06-01T03:13:50.547Z,83.37
2019-06-01T03:18:01.632Z,83.87
2019-06-01T03:22:10.497Z,84.31
2019-06-01T03:26:21.135Z,84.77
2019-06-01T03:30:45.148Z,84.23
2019-06-01T03:34:49.863Z,84.64
2019-06-01T03:38:56.706Z,85.02
2019-06-01T03:43:04.274Z,84.74
2019-06-01T03:47:11.880Z,84.62
2019-06-01T03:51:18.699Z,84.68
2019-06-01T03:55:25.439Z,84.61
2019-06-01T03:59:32.213Z,84.69
2019-06-01T04:03:39.225Z,84.88
2019-06-01T04:07:46.071Z,85.43
2019-06-01T04:11:53.040Z,86.94
2019-06-01T04:15:59.889Z,87.47
2019-06-01T04:20:08.191Z,86.54
2019-06-01T04:24:15.912Z,87.66
2019-06-01T04:28:22.917Z,87.46
2019-06-01T04:32:29.678Z,86.07
2019-06-01T04:36:36.382Z,85.47
2019-06-01T04:40:43.105Z,85.14
2019-06-01T04:44:49.894Z,84.90
2019-06-01T04:48:56.597Z,84.65
2019-06-01T04:53:04.578Z,84.19
2019-06-01T04:57:11.553Z,84.33
2019-06-01T05:01:18.359Z,84.03
2019-06-01T05:05:25.116Z,83.84
2019-06-01T05:09:31.878Z,83.81
2019-06-01T05:13:38.610Z,83.03
2019-06-01T05:17:45.367Z,82.88
2019-06-01T05:21:52.300Z,81.90
2019-06-01T05:25:59.120Z,81.67
2019-06-01T05:30:07.320Z,82.45
2019-06-01T05:34:14.244Z,81.61
2019-06-01T05:38:21.009Z,80.50
2019-06-01T05:42:27.811Z,80.04
2019-06-01T05:46:36.314Z,78.85
2019-06-01T05:50:44.027Z,78.54
2019-06-01T05:54:50.899Z,77.46
2019-06-01T05:58:57.701Z,77.63
2019-06-01T06:03:06.904Z,77.31
2019-06-01T06:07:14.736Z,77.03
2019-06-01T06:11:21.553Z,76.25
2019-06-01T06:15:28.670Z,75.44
2019-06-01T06:19:35.566Z,74.70
2019-06-01T06:23:42.347Z,74.15
2019-06-01T06:27:49.216Z,73.23
2019-06-01T06:31:56.193Z,72.57
2019-06-01T06:36:03.572Z,72.29
2019-06-01T06:40:10.887Z,72.73
2019-06-01T06:44:18.526Z,71.61
2019-06-01T06:48:25.575Z,70.81
2019-06-01T06:52:32.383Z,70.81
2019-06-01T06:56:39.175Z,70.68
2019-06-01T07:00:46.042Z,70.28
2019-06-01T07:04:52.969Z,69.46
2019-06-01T07:08:59.909Z,67.97
2019-06-01T07:13:06.742Z,67.41
2019-06-01T07:17:15.700Z,67.80
2019-06-01T07:21:23.646Z,66.66
2019-06-01T07:25:30.655Z,66.64
2019-06-01T07:29:37.432Z,66.11
2019-06-01T07:33:46.426Z,65.83
2019-06-01T07:37:53.255Z,64.47
2019-06-01T07:42:00.096Z,65.40
2019-06-01T07:46:06.851Z,65.37
2019-06-01T07:50:14.445Z,64.21
2019-06-01T07:54:22.273Z,63.62
2019-06-01T07:58:29.052Z,62.36
2019-06-01T08:02:36.144Z,60.77
2019-06-01T08:06:47.408Z,59.79
2019-06-01T08:10:52.483Z,59.16
2019-06-01T08:14:59.342Z,57.70
2019-06-01T08:19:07.089Z,57.41
2019-06-01T08:23:13.867Z,56.20
2019-06-01T08:27:20.731Z,55.30
2019-06-01T08:31:28.698Z,53.34
2019-06-01T08:35:35.557Z,52.59
2019-06-01T08:39:42.642Z,50.34
2019-06-01T08:43:49.645Z,49.68
2019-06-01T08:47:56.541Z,48.18
2019-06-01T08:52:03.649Z,47.24
2019-06-01T08:56:10.402Z,46.02
2019-06-01T09:00:17.491Z,46.18
2019-06-01T09:04:24.588Z,43.68
2019-06-01T09:08:31.389Z,43.03
2019-06-01T09:12:38.273Z,41.57
2019-06-01T09:16:45.012Z,41.28
2019-06-01T09:20:51.821Z,40.57
2019-06-01T09:24:58.613Z,39.71
2019-06-01T09:29:05.458Z,39.51
2019-06-01T09:33:12.293Z,39.48
2019-06-01T09:37:19.516Z,39.89
2019-06-01T09:41:28.336Z,38.93
2019-06-01T09:45:36.598Z,38.84
2019-06-01T09:49:43.333Z,36.08
2019-06-01T09:53:50.097Z,36.04
2019-06-01T09:57:57.120Z,36.50
2019-06-01T10:02:03.830Z,38.49
2019-06-01T10:06:13.978Z,37.37
2019-06-01T10:10:20.072Z,36.33
2019-06-01T10:14:26.922Z,36.32
2019-06-01T10:18:36.941Z,35.96
2019-06-01T10:22:44.961Z,36.07
2019-06-01T10:26:52.169Z,34.95
2019-06-01T10:31:11.362Z,34.31
2019-06-01T10:35:18.329Z,34.84
2019-06-01T10:39:51.981Z,34.59
2019-06-01T10:43:59.228Z,35.08
2019-06-01T10:48:06.093Z,35.18
2019-06-01T10:52:14.384Z,34.01
2019-06-01T10:56:21.386Z,34.51
2019-06-01T11:00:39.658Z,33.54
2019-06-01T11:04:37.120Z,33.19
2019-06-01T11:08:43.850Z,33.53
2019-06-01T11:12:50.726Z,34.51
2019-06-01T11:16:57.549Z,34.12
2019-06-01T11:21:04.477Z,33.77
2019-06-01T11:25:11.996Z,32.86
2019-06-01T11:29:18.780Z,33.44
2019-06-01T11:33:26.832Z,33.24
2019-06-01T11:37:34.216Z,33.84
2019-06-01T11:41:40.979Z,32.45
2019-06-01T11:45:47.825Z,32.04
2019-06-01T11:49:54.767Z,33.80
2019-06-01T11:54:01.768Z,33.45
2019-06-01T11:58:08.739Z,34.97
2019-06-01T12:02:15.869Z,33.53
2019-06-01T12:06:22.823Z,33.35
2019-06-01T12:10:29.649Z,34.95
2019-06-01T12:14:36.444Z,32.63
2019-06-01T12:18:44.627Z,34.03
2019-06-01T12:22:54.736Z,33.24
2019-06-01T12:27:01.608Z,33.01
2019-06-01T12:31:08.605Z,32.45
2019-06-01T12:35:15.916Z,31.19
2019-06-01T12:39:23.144Z,31.79
2019-06-01T12:43:30.088Z,31.10
2019-06-01T12:47:49.647Z,30.98
2019-06-01T12:51:54.595Z,30.52
2019-06-01T12:56:01.417Z,29.52
2019-06-01T13:00:09.533Z,29.83
2019-06-01T13:04:16.407Z,29.31
2019-06-01T13:08:23.299Z,28.95
2019-06-01T13:12:30.200Z,28.64
2019-06-01T13:16:37.314Z,28.40
2019-06-01T13:20:45.306Z,28.42
2019-06-01T13:24:52.220Z,28.23
2019-06-01T13:28:59.007Z,28.08
2019-06-01T13:33:06.303Z,27.67
2019-06-01T13:37:13.079Z,27.91
2019-06-01T13:41:20.055Z,27.53
2019-06-01T13:45:26.837Z,28.25
2019-06-01T13:49:33.857Z,28.79
2019-06-01T13:53:40.829Z,27.65
2019-06-01T13:57:48.311Z,27.53
2019-06-01T14:01:55.432Z,28.05
2019-06-01T14:06:02.291Z,28.07
2019-06-01T14:10:09.405Z,27.80
2019-06-01T14:14:16.336Z,28.24
2019-06-01T14:18:23.162Z,28.39
2019-06-01T14:22:32.981Z,28.25
2019-06-01T14:26:39.673Z,28.13
2019-06-01T14:30:48.450Z,28.32
2019-06-01T14:34:55.400Z,28.93
2019-06-01T14:39:02.243Z,29.73
2019-06-01T14:43:09.374Z,28.94
2019-06-01T14:47:18.662Z,28.14
2019-06-01T14:51:24.487Z,30.08
2019-06-01T14:55:31.229Z,30.14
2019-06-01T14:59:37.983Z,29.40
2019-06-01T15:03:44.785Z,29.92
2019-06-01T15:07:52.345Z,30.61
2019-06-01T15:11:59.272Z,31.03
2019-06-01T15:16:06.156Z,30.90
2019-06-01T15:20:14.318Z,31.28
2019-06-01T15:24:21.203Z,31.63
2019-06-01T15:28:28.093Z,31.37
2019-06-01T15:32:34.948Z,31.87
2019-06-01T15:36:41.796Z,31.87
2019-06-01T15:40:48.745Z,33.00
2019-06-01T15:44:55.488Z,32.86
2019-06-01T15:49:02.314Z,33.18
2019-06-01T15:53:09.054Z,33.01
2019-06-01T15:57:15.808Z,33.15
2019-06-01T16:01:22.960Z,32.72
2019-06-01T16:05:29.859Z,33.08
2019-06-01T16:09:42.553Z,33.01
2019-06-01T16:13:45.242Z,33.59
2019-06-01T16:17:51.932Z,33.38
2019-06-01T16:22:00.235Z,33.51
2019-06-01T16:26:15.617Z,33.70
2019-06-01T16:30:16.233Z,34.34
2019-06-01T16:34:23.005Z,35.22
2019-06-01T16:38:29.707Z,34.81
2019-06-01T16:42:36.541Z,35.12
2019-06-01T16:46:46.045Z,34.88
2019-06-01T16:50:52.940Z,34.74
2019-06-01T16:55:00.484Z,35.11
2019-06-01T16:59:10.251Z,34.60
2019-06-01T17:03:18.064Z,35.17
2019-06-01T17:07:24.832Z,35.06
2019-06-01T17:11:31.558Z,35.07
2019-06-01T17:15:39.527Z,35.10
2019-06-01T17:19:46.255Z,35.24
2019-06-01T17:23:53.099Z,35.18
2019-06-01T17:28:00.993Z,35.47
2019-06-01T17:32:22.756Z,35.44
2019-06-01T17:36:16.298Z,35.19
2019-06-01T17:40:36.820Z,35.92
2019-06-01T17:44:31.762Z,36.02
2019-06-01T17:48:38.560Z,36.30
2019-06-01T17:52:45.418Z,36.19
2019-06-01T17:56:52.312Z,36.16
2019-06-01T18:00:59.685Z,36.69
2019-06-01T18:05:08.129Z,35.91
2019-06-01T18:09:16.204Z,35.84
2019-06-01T18:13:23.514Z,35.72
2019-06-01T18:17:30.474Z,35.49
2019-06-01T18:21:37.216Z,35.57
2019-06-01T18:25:44.208Z,35.64
2019-06-01T18:29:50.965Z,35.79
2019-06-01T18:33:57.889Z,36.05
2019-06-01T18:38:05.763Z,36.41
2019-06-01T18:42:12.796Z,36.46
2019-06-01T18:46:19.614Z,36.90
2019-06-01T18:50:26.699Z,37.23
2019-06-01T18:54:33.559Z,37.53
2019-06-01T18:58:40.307Z,37.64
2019-06-01T19:02:47.059Z,38.00
2019-06-01T19:06:53.761Z,38.34
2019-06-01T19:11:03.020Z,38.32
2019-06-01T19:15:25.143Z,38.41
2019-06-01T19:19:20.896Z,38.54
2019-06-01T19:23:28.553Z,38.80
2019-06-01T19:27:35.352Z,38.88
2019-06-01T19:31:42.411Z,39.01
2019-06-01T19:35:49.834Z,39.22
2019-06-01T19:39:56.711Z,39.61
2019-06-01T19:44:03.655Z,39.61
2019-06-01T19:48:12.345Z,39.62
2019-06-01T19:52:19.279Z,39.62
2019-06-01T19:56:26.188Z,39.91
2019-06-01T20:00:33.204Z,41.12
2019-06-01T20:04:40.216Z,41.52
2019-06-01T20:08:48.907Z,41.76
2019-06-01T20:12:55.726Z,41.94
2019-06-01T20:17:02.630Z,42.72
2019-06-01T20:21:09.506Z,42.53
2019-06-01T20:25:17.579Z,42.67
2019-06-01T20:29:24.712Z,42.21
2019-06-01T20:33:34.427Z,43.37
2019-06-01T20:37:40.767Z,44.01
2019-06-01T20:41:47.733Z,44.24
2019-06-01T20:45:57.112Z,44.25
2019-06-01T20:50:05.459Z,45.28
2019-06-01T20:54:12.979Z,45.34
2019-06-01T20:58:22.021Z,46.30
2019-06-01T21:02:29.513Z,46.26
2019-06-01T21:06:37.326Z,46.54
2019-06-01T21:10:44.580Z,46.94
2019-06-01T21:14:51.793Z,47.12
2019-06-01T21:18:58.603Z,47.43
2019-06-01T21:23:05.679Z,47.83
2019-06-01T21:27:12.561Z,48.25
2019-06-01T21:31:19.370Z,48.77
2019-06-01T21:35:26.190Z,49.78
2019-06-01T21:39:34.583Z,50.56
2019-06-01T21:43:43.414Z,49.91
2019-06-01T21:47:50.497Z,50.61
2019-06-01T21:51:57.267Z,50.98
2019-06-01T21:56:04.205Z,51.54
2019-06-01T22:00:13.584Z,50.93
2019-06-01T22:04:23.015Z,50.93
2019-06-01T22:08:29.893Z,50.45
2019-06-01T22:12:36.638Z,50.83
2019-06-01T22:16:43.715Z,51.55
2019-06-01T22:20:50.606Z,52.08
2019-06-01T22:24:57.944Z,52.02
2019-06-01T22:29:05.074Z,52.49
2019-06-01T22:33:11.883Z,52.73
2019-06-01T22:37:19.745Z,54.18
2019-06-01T22:41:28.026Z,56.23
2019-06-01T22:45:35.196Z,56.96
2019-06-01T22:49:42.187Z,57.31
2019-06-01T22:53:49.092Z,58.86
2019-06-01T22:57:58.754Z,59.08
2019-06-01T23:02:05.652Z,59.43
2019-06-01T23:06:12.426Z,59.86
2019-06-01T23:10:19.199Z,60.23
2019-06-01T23:14:27.291Z,60.51
2019-06-01T23:18:34.106Z,60.93
2019-06-01T23:22:40.798Z,61.43
2019-06-01T23:26:47.551Z,61.57
2019-06-01T23:30:54.451Z,61.74
2019-06-01T23:35:01.229Z,61.85
2019-06-01T23:39:08.765Z,62.08
2019-06-01T23:43:15.465Z,63.14
2019-06-01T23:47:23.025Z,63.46
2019-06-01T23:51:29.989Z,63.66
2019-06-01T23:55:36.749Z,63.25
2019-06-01T23:59:43.607Z,63.81
